createdAt,value
2019-02-02T00:00:23.304Z,3.00
2019-02-02T00:02:51.904Z,3.00
2019-02-02T00:05:20.602Z,2.80
2019-02-02T00:07:49.288Z,2.70
2019-02-02T00:10:18.207Z,2.80
2019-02-02T00:12:46.859Z,2.70
2019-02-02T00:15:15.748Z,2.80
2019-02-02T00:17:44.388Z,3.00
2019-02-02T00:20:13.279Z,3.00
2019-02-02T00:22:42.108Z,2.90
2019-02-02T00:25:11.290Z,2.90
2019-02-02T00:27:41.536Z,3.20
2019-02-02T00:30:20.916Z,3.20
2019-02-02T00:32:49.682Z,3.10
2019-02-02T00:35:18.553Z,2.90
2019-02-02T00:37:47.187Z,2.90
2019-02-02T00:40:20.160Z,3.10
2019-02-02T00:42:49.194Z,3.10
2019-02-02T00:45:20.018Z,3.00
2019-02-02T00:47:50.195Z,2.60
2019-02-02T00:50:19.717Z,2.80
2019-02-02T00:52:48.461Z,3.00
2019-02-02T00:55:19.725Z,3.10
2019-02-02T00:57:53.613Z,3.20
2019-02-02T01:00:26.426Z,3.20
2019-02-02T01:02:55.677Z,3.10
2019-02-02T01:05:24.725Z,2.80
2019-02-02T01:07:54.335Z,2.80
2019-02-02T01:10:29.513Z,2.80
2019-02-02T01:12:59.829Z,2.90
2019-02-02T01:15:28.724Z,2.60
2019-02-02T01:17:57.480Z,2.70
2019-02-02T01:20:26.500Z,2.80
2019-02-02T01:22:55.351Z,2.90
2019-02-02T01:25:24.050Z,2.80
2019-02-02T01:28:04.463Z,2.70
2019-02-02T01:30:24.961Z,2.70
2019-02-02T01:32:54.081Z,2.60
2019-02-02T01:35:22.871Z,2.80
2019-02-02T01:37:51.779Z,3.00
2019-02-02T01:40:25.250Z,3.00
2019-02-02T01:42:54.079Z,3.10
2019-02-02T01:45:25.427Z,3.20
2019-02-02T01:47:54.635Z,3.10
2019-02-02T01:50:25.869Z,3.10
2019-02-02T01:52:54.601Z,3.10
2019-02-02T01:55:23.366Z,3.00
2019-02-02T01:57:52.952Z,2.80
2019-02-02T02:00:24.455Z,3.00
2019-02-02T02:02:53.548Z,2.80
2019-02-02T02:05:22.782Z,2.80
2019-02-02T02:07:51.638Z,3.00
2019-02-02T02:10:21.298Z,3.20
2019-02-02T02:12:50.283Z,3.20
2019-02-02T02:15:20.155Z,3.20
2019-02-02T02:17:49.031Z,3.00
2019-02-02T02:20:24.273Z,3.00
2019-02-02T02:22:52.380Z,3.00
2019-02-02T02:25:22.090Z,3.10
2019-02-02T02:27:51.390Z,3.00
2019-02-02T02:30:21.865Z,3.00
2019-02-02T02:32:51.110Z,2.80
2019-02-02T02:35:19.939Z,2.90
2019-02-02T02:37:48.848Z,2.90
2019-02-02T02:40:20.301Z,3.00
2019-02-02T02:42:49.339Z,3.10
2019-02-02T02:45:19.887Z,3.00
2019-02-02T02:47:48.759Z,3.00
2019-02-02T02:50:22.220Z,3.10
2019-02-02T02:52:51.328Z,3.20
2019-02-02T02:55:20.086Z,2.90
2019-02-02T02:57:49.875Z,2.90
2019-02-02T03:00:20.729Z,3.00
2019-02-02T03:02:49.859Z,2.70
2019-02-02T03:05:19.237Z,2.80
2019-02-02T03:07:49.217Z,2.70
2019-02-02T03:10:22.922Z,2.70
2019-02-02T03:12:51.724Z,2.70
2019-02-02T03:15:20.792Z,2.80
2019-02-02T03:17:50.647Z,2.90
2019-02-02T03:20:19.724Z,3.00
2019-02-02T03:22:48.434Z,2.90
2019-02-02T03:25:20.138Z,2.80
2019-02-02T03:27:50.797Z,3.10
2019-02-02T03:30:21.160Z,3.20
2019-02-02T03:32:50.012Z,3.10
2019-02-02T03:35:21.187Z,3.10
2019-02-02T03:37:49.966Z,3.40
2019-02-02T03:40:20.705Z,2.90
2019-02-02T03:42:49.453Z,3.00
2019-02-02T03:45:20.710Z,3.10
2019-02-02T03:47:50.744Z,3.10
2019-02-02T03:50:20.042Z,3.00
2019-02-02T03:52:49.138Z,3.10
2019-02-02T03:55:18.010Z,3.00
2019-02-02T03:57:46.773Z,3.00
2019-02-02T04:00:18.169Z,3.10
2019-02-02T04:02:46.956Z,3.30
2019-02-02T04:05:25.479Z,3.10
2019-02-02T04:07:54.732Z,3.20
2019-02-02T04:10:23.961Z,3.20
2019-02-02T04:12:52.965Z,2.90
2019-02-02T04:15:22.547Z,3.20
2019-02-02T04:17:51.340Z,3.20
2019-02-02T04:20:21.855Z,3.10
2019-02-02T04:22:50.935Z,3.20
2019-02-02T04:25:21.305Z,3.10
2019-02-02T04:27:50.182Z,3.00
2019-02-02T04:30:21.790Z,2.80
2019-02-02T04:32:50.477Z,2.90
2019-02-02T04:35:19.307Z,3.00
2019-02-02T04:37:48.382Z,3.20
2019-02-02T04:40:17.159Z,3.00
2019-02-02T04:42:46.036Z,3.00
2019-02-02T04:45:16.419Z,3.00
2019-02-02T04:47:45.104Z,2.80
2019-02-02T04:50:16.488Z,2.60
2019-02-02T04:52:45.254Z,2.70
2019-02-02T04:55:15.642Z,2.50
2019-02-02T04:57:44.735Z,2.50
2019-02-02T05:00:19.501Z,2.40
2019-02-02T05:02:48.267Z,2.40
2019-02-02T05:05:18.205Z,2.50
2019-02-02T05:07:47.096Z,2.50
2019-02-02T05:10:20.531Z,2.40
2019-02-02T05:12:49.284Z,2.50
2019-02-02T05:15:18.586Z,2.50
2019-02-02T05:17:47.616Z,2.40
2019-02-02T05:20:18.312Z,2.50
2019-02-02T05:22:47.412Z,2.40
2019-02-02T05:25:16.293Z,2.50
2019-02-02T05:27:45.132Z,2.50
2019-02-02T05:30:21.348Z,2.60
2019-02-02T05:32:50.124Z,2.60
2019-02-02T05:35:19.026Z,2.50
2019-02-02T05:37:49.640Z,2.50
2019-02-02T05:40:20.586Z,2.40
2019-02-02T05:42:49.378Z,2.40
2019-02-02T05:45:20.521Z,2.40
2019-02-02T05:47:49.612Z,2.40
2019-02-02T05:50:20.443Z,2.50
2019-02-02T05:52:49.565Z,2.60
2019-02-02T05:55:20.024Z,2.60
2019-02-02T05:57:48.807Z,2.80
2019-02-02T06:00:34.157Z,2.90
2019-02-02T06:03:02.786Z,3.10
2019-02-02T06:05:31.540Z,3.10
2019-02-02T06:08:00.183Z,2.70
2019-02-02T06:10:28.869Z,2.50
2019-02-02T06:12:58.001Z,2.50
2019-02-02T06:15:28.579Z,2.60
2019-02-02T06:17:57.826Z,2.60
2019-02-02T06:20:26.723Z,2.80
2019-02-02T06:22:55.557Z,2.90
2019-02-02T06:25:24.960Z,2.90
2019-02-02T06:27:53.807Z,2.90
2019-02-02T06:30:24.498Z,2.80
2019-02-02T06:32:53.384Z,2.90
2019-02-02T06:35:22.148Z,3.00
2019-02-02T06:37:50.862Z,3.10
2019-02-02T06:40:19.572Z,3.00
2019-02-02T06:42:48.225Z,2.70
2019-02-02T06:45:26.104Z,2.60
2019-02-02T06:47:55.205Z,2.50
2019-02-02T06:50:24.398Z,2.80
2019-02-02T06:52:53.535Z,2.90
2019-02-02T06:55:22.344Z,2.90
2019-02-02T06:57:51.006Z,2.90
2019-02-02T07:00:26.237Z,3.10
2019-02-02T07:02:53.176Z,3.10
2019-02-02T07:05:22.039Z,3.00
2019-02-02T07:07:50.833Z,2.80
2019-02-02T07:10:24.927Z,2.70
2019-02-02T07:12:54.068Z,2.70
2019-02-02T07:15:25.056Z,2.60
2019-02-02T07:17:53.852Z,2.60
2019-02-02T07:20:22.640Z,2.60
2019-02-02T07:22:51.421Z,2.50
2019-02-02T07:25:20.209Z,2.60
2019-02-02T07:27:49.006Z,2.70
2019-02-02T07:30:28.857Z,2.70
2019-02-02T07:32:52.939Z,2.70
2019-02-02T07:35:21.870Z,2.90
2019-02-02T07:37:50.842Z,2.90
2019-02-02T07:40:21.050Z,2.80
2019-02-02T07:42:49.957Z,2.80
2019-02-02T07:45:24.557Z,2.80
2019-02-02T07:47:53.421Z,2.80
2019-02-02T07:50:22.726Z,2.80
2019-02-02T07:52:51.450Z,2.90
2019-02-02T07:55:21.694Z,2.90
2019-02-02T07:57:52.326Z,2.90
2019-02-02T08:00:39.405Z,2.80
2019-02-02T08:02:57.412Z,2.90
2019-02-02T08:05:26.236Z,2.90
2019-02-02T08:07:55.948Z,3.00
2019-02-02T08:10:24.701Z,3.10
2019-02-02T08:12:53.574Z,3.10
2019-02-02T08:15:24.768Z,3.20
2019-02-02T08:17:53.549Z,3.30
2019-02-02T08:20:22.284Z,3.20
2019-02-02T08:22:51.531Z,3.10
2019-02-02T08:25:20.206Z,3.30
2019-02-02T08:27:49.208Z,3.50
2019-02-02T08:30:26.094Z,3.60
2019-02-02T08:32:54.827Z,3.70
2019-02-02T08:35:23.946Z,3.70
2019-02-02T08:37:53.058Z,3.70
2019-02-02T08:40:22.008Z,3.70
2019-02-02T08:42:50.912Z,3.80
2019-02-02T08:45:20.089Z,3.70
2019-02-02T08:47:49.210Z,3.70
2019-02-02T08:50:24.262Z,3.70
2019-02-02T08:52:53.101Z,3.70
2019-02-02T08:55:21.863Z,3.70
2019-02-02T08:57:50.672Z,3.80
2019-02-02T09:00:20.362Z,3.90
2019-02-02T09:02:49.151Z,3.40
2019-02-02T09:05:20.158Z,3.20
2019-02-02T09:07:49.054Z,3.20
2019-02-02T09:10:25.882Z,3.10
2019-02-02T09:12:54.664Z,3.10
2019-02-02T09:15:23.514Z,3.00
2019-02-02T09:17:52.227Z,3.00
2019-02-02T09:20:21.160Z,3.00
2019-02-02T09:22:49.882Z,3.00
2019-02-02T09:25:19.524Z,3.00
2019-02-02T09:27:48.309Z,3.10
2019-02-02T09:30:25.848Z,3.20
2019-02-02T09:32:55.030Z,3.20
2019-02-02T09:35:23.799Z,3.20
2019-02-02T09:37:53.125Z,3.10
2019-02-02T09:40:25.468Z,3.00
2019-02-02T09:42:53.442Z,2.90
2019-02-02T09:45:23.856Z,3.00
2019-02-02T09:47:52.708Z,3.00
2019-02-02T09:50:26.034Z,2.90
2019-02-02T09:52:54.991Z,2.90
2019-02-02T09:55:25.507Z,3.10
2019-02-02T09:57:56.683Z,3.20
2019-02-02T10:00:27.650Z,3.20
2019-02-02T10:02:57.846Z,3.20
2019-02-02T10:05:26.909Z,3.10
2019-02-02T10:07:57.749Z,3.10
2019-02-02T10:10:31.212Z,3.10
2019-02-02T10:13:00.263Z,3.20
2019-02-02T10:15:28.961Z,3.20
2019-02-02T10:17:58.192Z,3.20
2019-02-02T10:20:31.237Z,3.20
2019-02-02T10:23:00.921Z,3.10
2019-02-02T10:25:31.279Z,3.20
2019-02-02T10:28:00.640Z,3.40
2019-02-02T10:30:36.850Z,3.50
2019-02-02T10:33:06.285Z,3.40
2019-02-02T10:35:35.554Z,3.40
2019-02-02T10:38:04.794Z,3.10
2019-02-02T10:40:33.912Z,3.20
2019-02-02T10:43:02.797Z,3.20
2019-02-02T10:45:32.041Z,3.10
2019-02-02T10:48:01.337Z,3.00
2019-02-02T10:50:30.194Z,3.10
2019-02-02T10:53:00.680Z,3.30
2019-02-02T10:55:29.828Z,3.10
2019-02-02T10:57:59.529Z,3.00
2019-02-02T11:00:30.827Z,3.00
2019-02-02T11:02:59.788Z,3.00
2019-02-02T11:05:28.547Z,3.10
2019-02-02T11:07:57.986Z,3.20
2019-02-02T11:10:28.717Z,3.20
2019-02-02T11:12:58.196Z,3.10
2019-02-02T11:15:27.208Z,3.10
2019-02-02T11:17:56.047Z,3.00
2019-02-02T11:20:32.788Z,3.10
2019-02-02T11:23:01.574Z,3.00
2019-02-02T11:25:30.665Z,3.00
2019-02-02T11:28:01.067Z,3.10
2019-02-02T11:30:30.551Z,3.00
2019-02-02T11:32:59.774Z,3.10
2019-02-02T11:35:28.862Z,3.10
2019-02-02T11:37:57.952Z,3.20
2019-02-02T11:40:31.555Z,3.10
2019-02-02T11:43:00.532Z,3.20
2019-02-02T11:45:29.651Z,3.10
2019-02-02T11:47:59.050Z,3.10
2019-02-02T11:50:28.414Z,3.00
2019-02-02T11:52:57.531Z,3.10
2019-02-02T11:55:28.666Z,3.00
2019-02-02T11:57:57.326Z,3.00
2019-02-02T12:00:31.124Z,3.00
2019-02-02T12:03:04.214Z,3.20
2019-02-02T12:05:30.502Z,2.90
2019-02-02T12:07:59.377Z,3.00
2019-02-02T12:10:30.503Z,3.00
2019-02-02T12:12:59.494Z,3.00
2019-02-02T12:15:29.802Z,3.00
2019-02-02T12:17:58.573Z,3.20
2019-02-02T12:20:27.902Z,3.00
2019-02-02T12:22:57.074Z,3.10
2019-02-02T12:25:26.452Z,3.10
2019-02-02T12:27:55.370Z,3.10
2019-02-02T12:30:26.527Z,3.00
2019-02-02T12:32:56.357Z,2.90
2019-02-02T12:35:26.759Z,2.80
2019-02-02T12:37:55.978Z,2.80
2019-02-02T12:40:26.688Z,3.00
2019-02-02T12:42:55.631Z,2.90
2019-02-02T12:45:36.345Z,2.90
2019-02-02T12:48:05.959Z,2.90
2019-02-02T12:50:35.831Z,2.90
2019-02-02T12:53:05.252Z,2.90
2019-02-02T12:55:34.277Z,3.10
2019-02-02T12:58:03.286Z,3.00
2019-02-02T13:00:31.902Z,2.80
2019-02-02T13:03:00.944Z,2.90
2019-02-02T13:05:30.004Z,2.90
2019-02-02T13:07:58.911Z,2.70
2019-02-02T13:10:29.280Z,2.80
2019-02-02T13:12:58.096Z,2.90
2019-02-02T13:15:27.219Z,2.90
2019-02-02T13:17:56.025Z,2.90
2019-02-02T13:20:26.490Z,3.00
2019-02-02T13:22:55.333Z,3.00
2019-02-02T13:25:24.921Z,2.80
2019-02-02T13:27:53.990Z,3.00
2019-02-02T13:30:28.025Z,3.00
2019-02-02T13:32:56.831Z,3.10
2019-02-02T13:35:26.626Z,2.90
2019-02-02T13:37:55.392Z,2.90
2019-02-02T13:40:25.566Z,2.90
2019-02-02T13:42:54.390Z,2.80
2019-02-02T13:45:23.791Z,2.90
2019-02-02T13:47:52.484Z,2.80
2019-02-02T13:50:21.638Z,2.90
2019-02-02T13:52:52.123Z,2.90
2019-02-02T13:55:21.339Z,3.00
2019-02-02T13:57:50.027Z,2.90
2019-02-02T14:00:24.412Z,2.90
2019-02-02T14:03:02.453Z,3.00
2019-02-02T14:05:23.996Z,2.90
2019-02-02T14:07:52.952Z,2.80
2019-02-02T14:10:30.956Z,2.80
2019-02-02T14:12:59.798Z,2.70
2019-02-02T14:15:28.791Z,2.70
2019-02-02T14:17:57.579Z,2.60
2019-02-02T14:20:27.454Z,2.70
2019-02-02T14:22:56.605Z,2.70
2019-02-02T14:25:25.372Z,2.70
2019-02-02T14:27:54.292Z,2.80
2019-02-02T14:30:24.836Z,2.70
2019-02-02T14:32:54.869Z,2.70
2019-02-02T14:35:25.833Z,2.70
2019-02-02T14:37:54.670Z,2.60
2019-02-02T14:40:23.562Z,2.60
2019-02-02T14:42:52.246Z,2.70
2019-02-02T14:45:23.362Z,2.70
2019-02-02T14:47:52.128Z,2.80
2019-02-02T14:50:21.983Z,2.60
2019-02-02T14:52:51.870Z,2.50
2019-02-02T14:55:22.931Z,2.60
2019-02-02T14:57:51.624Z,2.70
2019-02-02T15:00:22.414Z,2.70
2019-02-02T15:02:51.122Z,2.60
2019-02-02T15:05:21.829Z,2.50
2019-02-02T15:07:50.632Z,2.40
2019-02-02T15:10:20.450Z,2.50
2019-02-02T15:12:49.665Z,2.40
2019-02-02T15:15:18.953Z,2.60
2019-02-02T15:17:47.750Z,2.60
2019-02-02T15:20:23.569Z,2.60
2019-02-02T15:22:52.424Z,2.70
2019-02-02T15:25:22.400Z,2.50
2019-02-02T15:27:51.043Z,2.20
2019-02-02T15:30:25.291Z,2.20
2019-02-02T15:32:54.089Z,2.10
2019-02-02T15:35:24.293Z,2.10
2019-02-02T15:37:53.055Z,2.10
2019-02-02T15:40:21.884Z,2.00
2019-02-02T15:42:50.520Z,1.90
2019-02-02T15:45:25.146Z,1.90
2019-02-02T15:47:53.936Z,1.80
2019-02-02T15:50:22.822Z,2.00
2019-02-02T15:52:51.715Z,1.90
2019-02-02T15:55:23.055Z,1.90
2019-02-02T15:57:51.850Z,1.90
2019-02-02T16:00:28.955Z,2.00
2019-02-02T16:02:58.179Z,1.90
2019-02-02T16:05:27.547Z,1.90
2019-02-02T16:07:57.504Z,1.80
2019-02-02T16:10:31.874Z,1.80
2019-02-02T16:13:01.036Z,1.80
2019-02-02T16:15:29.800Z,1.80
2019-02-02T16:17:58.642Z,1.90
2019-02-02T16:20:30.172Z,2.00
2019-02-02T16:22:58.967Z,2.10
2019-02-02T16:25:27.776Z,2.10
2019-02-02T16:28:00.470Z,2.20
2019-02-02T16:30:30.089Z,1.90
2019-02-02T16:32:59.160Z,1.80
2019-02-02T16:35:28.068Z,1.80
2019-02-02T16:37:57.256Z,1.70
2019-02-02T16:40:32.269Z,1.70
2019-02-02T16:43:00.876Z,1.80
2019-02-02T16:45:31.466Z,1.90
2019-02-02T16:48:01.682Z,1.80
2019-02-02T16:50:30.362Z,1.90
2019-02-02T16:53:00.251Z,2.00
2019-02-02T16:55:29.270Z,2.00
2019-02-02T16:57:57.959Z,2.00
2019-02-02T17:00:32.816Z,2.00
2019-02-02T17:03:01.883Z,2.10
2019-02-02T17:05:30.818Z,2.10
2019-02-02T17:07:59.594Z,2.00
2019-02-02T17:10:30.184Z,1.90
2019-02-02T17:12:58.963Z,1.80
2019-02-02T17:15:27.795Z,1.60
2019-02-02T17:17:56.524Z,1.60
2019-02-02T17:20:28.076Z,1.70
2019-02-02T17:22:57.861Z,1.70
2019-02-02T17:25:26.580Z,1.70
2019-02-02T17:27:55.379Z,1.70
2019-02-02T17:30:27.739Z,1.70
2019-02-02T17:32:59.636Z,1.80
2019-02-02T17:35:28.636Z,1.80
2019-02-02T17:37:57.610Z,1.70
2019-02-02T17:40:30.376Z,1.90
2019-02-02T17:42:59.192Z,1.70
2019-02-02T17:45:28.389Z,1.80
2019-02-02T17:47:57.364Z,1.90
2019-02-02T17:50:28.379Z,1.90
2019-02-02T17:52:57.500Z,2.00
2019-02-02T17:55:26.277Z,2.00
2019-02-02T17:57:56.125Z,2.00
2019-02-02T18:00:40.847Z,2.00
2019-02-02T18:03:09.616Z,2.20
2019-02-02T18:05:38.458Z,2.00
2019-02-02T18:08:07.214Z,2.10
2019-02-02T18:10:36.091Z,2.10
2019-02-02T18:13:05.274Z,2.00
2019-02-02T18:15:34.059Z,2.00
2019-02-02T18:18:02.994Z,2.10
2019-02-02T18:20:31.639Z,1.90
2019-02-02T18:23:00.419Z,1.90
2019-02-02T18:25:31.168Z,1.80
2019-02-02T18:27:59.853Z,1.70
2019-02-02T18:30:29.590Z,1.80
2019-02-02T18:32:58.435Z,1.80
2019-02-02T18:35:27.578Z,1.90
2019-02-02T18:37:56.319Z,1.90
2019-02-02T18:40:25.891Z,1.90
2019-02-02T18:42:54.811Z,1.90
2019-02-02T18:45:26.207Z,1.90
2019-02-02T18:47:54.844Z,1.90
2019-02-02T18:50:23.864Z,2.00
2019-02-02T18:52:54.452Z,2.00
2019-02-02T18:55:27.766Z,2.00
2019-02-02T18:57:56.666Z,2.00
2019-02-02T19:00:25.533Z,2.00
2019-02-02T19:02:54.294Z,2.10
2019-02-02T19:05:23.424Z,2.10
2019-02-02T19:07:52.151Z,2.10
2019-02-02T19:10:32.901Z,2.20
2019-02-02T19:13:01.652Z,2.10
2019-02-02T19:15:30.398Z,2.20
2019-02-02T19:17:59.191Z,2.20
2019-02-02T19:20:29.269Z,2.10
2019-02-02T19:22:57.964Z,2.20
2019-02-02T19:25:27.132Z,2.20
2019-02-02T19:27:55.886Z,2.20
2019-02-02T19:30:27.700Z,2.30
2019-02-02T19:32:58.056Z,2.30
2019-02-02T19:35:27.213Z,2.40
2019-02-02T19:37:55.970Z,2.30
2019-02-02T19:40:24.903Z,2.30
2019-02-02T19:42:53.605Z,2.40
2019-02-02T19:45:25.239Z,2.30
2019-02-02T19:47:53.809Z,2.20
2019-02-02T19:50:25.130Z,2.20
2019-02-02T19:52:54.390Z,2.20
2019-02-02T19:55:23.164Z,2.30
2019-02-02T19:57:51.886Z,2.20
2019-02-02T20:00:23.344Z,2.30
2019-02-02T20:02:52.229Z,2.30
2019-02-02T20:05:28.733Z,2.20
2019-02-02T20:07:51.490Z,2.10
2019-02-02T20:10:20.709Z,2.20
2019-02-02T20:12:49.875Z,2.20
2019-02-02T20:15:21.175Z,2.30
2019-02-02T20:17:50.034Z,2.30
2019-02-02T20:20:26.134Z,2.30
2019-02-02T20:22:55.415Z,2.30
2019-02-02T20:25:24.563Z,2.30
2019-02-02T20:27:53.613Z,2.30
2019-02-02T20:30:27.515Z,2.40
2019-02-02T20:32:57.054Z,2.40
2019-02-02T20:35:25.863Z,2.40
2019-02-02T20:37:54.603Z,2.30
2019-02-02T20:40:25.185Z,2.30
2019-02-02T20:42:54.362Z,2.40
2019-02-02T20:45:31.706Z,2.40
2019-02-02T20:48:00.518Z,2.50
2019-02-02T20:50:29.721Z,2.40
2019-02-02T20:52:58.584Z,2.40
2019-02-02T20:55:30.033Z,2.50
2019-02-02T20:57:59.047Z,2.40
2019-02-02T21:00:29.959Z,2.30
2019-02-02T21:02:58.948Z,2.40
2019-02-02T21:05:27.779Z,2.40
2019-02-02T21:07:56.640Z,2.10
2019-02-02T21:10:25.965Z,2.10
2019-02-02T21:12:55.061Z,2.10
2019-02-02T21:15:23.850Z,2.10
2019-02-02T21:17:52.886Z,2.10
2019-02-02T21:20:30.023Z,2.10
2019-02-02T21:22:59.100Z,2.10
2019-02-02T21:25:29.787Z,2.20
2019-02-02T21:27:58.287Z,2.20
2019-02-02T21:30:32.065Z,2.20
2019-02-02T21:33:00.855Z,2.20
2019-02-02T21:35:29.708Z,2.10
2019-02-02T21:37:58.594Z,2.30
2019-02-02T21:40:29.594Z,2.30
2019-02-02T21:42:58.908Z,2.10
2019-02-02T21:45:27.658Z,2.20
2019-02-02T21:47:57.018Z,2.20
2019-02-02T21:50:27.111Z,2.20
2019-02-02T21:52:56.263Z,2.10
2019-02-02T21:55:27.351Z,2.10
2019-02-02T21:57:56.450Z,2.30
2019-02-02T22:00:28.325Z,2.40
2019-02-02T22:02:57.190Z,2.30
2019-02-02T22:05:26.191Z,2.40
2019-02-02T22:07:55.267Z,2.40
2019-02-02T22:10:24.004Z,2.40
2019-02-02T22:12:53.343Z,2.30
2019-02-02T22:15:24.317Z,2.30
2019-02-02T22:17:53.064Z,2.30
2019-02-02T22:20:21.849Z,2.30
2019-02-02T22:22:50.868Z,2.20
2019-02-02T22:25:22.884Z,2.20
2019-02-02T22:27:53.102Z,2.30
2019-02-02T22:30:26.892Z,2.30
2019-02-02T22:32:55.947Z,2.30
2019-02-02T22:35:24.915Z,2.20
2019-02-02T22:37:53.750Z,2.10
2019-02-02T22:40:27.285Z,2.10
2019-02-02T22:42:56.452Z,2.10
2019-02-02T22:45:25.388Z,2.10
2019-02-02T22:47:54.199Z,2.10
2019-02-02T22:50:25.155Z,2.10
2019-02-02T22:52:54.129Z,2.10
2019-02-02T22:55:23.959Z,2.10
2019-02-02T22:57:53.357Z,2.10
2019-02-02T23:00:52.411Z,2.10
2019-02-02T23:03:30.251Z,2.20
2019-02-02T23:06:14.192Z,2.10
2019-02-02T23:09:05.189Z,2.00
2019-02-02T23:11:45.676Z,2.10
2019-02-02T23:14:27.874Z,2.00
2019-02-02T23:16:56.649Z,2.10
2019-02-02T23:19:25.322Z,2.10
2019-02-02T23:21:54.511Z,2.10
2019-02-02T23:24:23.272Z,2.10
2019-02-02T23:26:52.267Z,2.10
2019-02-02T23:29:21.092Z,2.10
2019-02-02T23:31:50.082Z,2.00
2019-02-02T23:34:18.692Z,2.10
2019-02-02T23:36:52.913Z,2.10
2019-02-02T23:39:17.979Z,2.00
2019-02-02T23:41:47.099Z,2.00
2019-02-02T23:44:15.819Z,2.00
2019-02-02T23:46:44.513Z,2.10
2019-02-02T23:49:13.192Z,2.10
2019-02-02T23:51:41.871Z,2.10
2019-02-02T23:54:11.068Z,2.10
2019-02-02T23:56:41.503Z,2.10
2019-02-02T23:59:10.524Z,2.10
